Time;durP1;ratioP1;P1;durP2;ratioP2;P2;SDS_P1;SDS_P2;PMS_P1;PMS_P2;Temp;Humidity;BMP_temperature;BMP_pressure;BME280_temperature;BME280_humidity;BME280_pressure;Samples;Min_cycle;Max_cycle;Signal;HPM_P1;HPM_P2
2023/11/12 00:00:59;;;;;;;20.50;13.23;;;7.10;99.90;;;;;;5077412;28;20638;-82
2023/11/12 00:03:27;;;;;;;19.30;12.23;;;7.10;99.90;;;;;;5061199;28;20199;-82
2023/11/12 00:05:54;;;;;;;18.13;12.47;;;7.10;99.90;;;;;;5066172;28;20250;-83
2023/11/12 00:08:21;;;;;;;18.03;12.93;;;7.10;99.90;;;;;;5077198;28;20198;-80
2023/11/12 00:10:48;;;;;;;19.03;12.63;;;7.10;99.90;;;;;;5078172;28;20287;-82
2023/11/12 00:13:15;;;;;;;20.50;14.23;;;7.10;99.90;;;;;;5078713;28;20206;-81
2023/11/12 00:15:42;;;;;;;20.73;13.47;;;7.10;99.90;;;;;;5072212;28;20701;-82
2023/11/12 00:18:09;;;;;;;22.73;13.17;;;7.10;99.90;;;;;;5082203;28;20214;-80
2023/11/12 00:20:37;;;;;;;21.60;13.73;;;7.10;99.90;;;;;;5073305;28;20264;-81
2023/11/12 00:23:04;;;;;;;21.33;14.27;;;7.20;99.90;;;;;;5073516;28;20234;-80
2023/11/12 00:25:31;;;;;;;26.30;15.97;;;7.10;99.90;;;;;;5074615;28;20266;-83
2023/11/12 00:27:57;;;;;;;25.93;16.80;;;7.10;99.90;;;;;;5077704;28;20277;-81
2023/11/12 00:30:24;;;;;;;21.10;14.27;;;7.10;99.90;;;;;;5061287;28;20732;-83
2023/11/12 00:32:51;;;;;;;23.30;15.23;;;7.10;99.90;;;;;;5077850;28;20699;-82
2023/11/12 00:35:18;;;;;;;26.20;15.77;;;7.10;99.90;;;;;;5077792;28;20224;-82
2023/11/12 00:37:47;;;;;;;24.10;15.40;;;7.10;99.90;;;;;;5078504;28;20218;-83
2023/11/12 00:40:14;;;;;;;22.87;16.93;;;7.10;99.90;;;;;;5076904;28;20200;-83
2023/11/12 00:42:41;;;;;;;24.93;16.93;;;7.10;99.90;;;;;;5064371;28;20206;-82
2023/11/12 00:45:09;;;;;;;23.93;15.87;;;7.10;99.90;;;;;;5077650;28;20289;-81
2023/11/12 00:47:36;;;;;;;24.73;16.13;;;7.10;99.90;;;;;;5061057;28;20227;-82
2023/11/12 00:50:03;;;;;;;26.07;17.60;;;7.10;99.90;;;;;;5077973;28;20218;-81
2023/11/12 00:52:30;;;;;;;26.80;16.57;;;7.10;99.90;;;;;;5078398;28;20206;-82
2023/11/12 00:54:58;;;;;;;25.90;16.37;;;7.10;99.90;;;;;;5077024;28;20736;-81
2023/11/12 00:57:25;;;;;;;25.27;16.83;;;7.10;99.90;;;;;;5077419;28;20252;-82
2023/11/12 00:59:52;;;;;;;31.50;17.77;;;7.10;99.90;;;;;;5078518;28;20614;-82
2023/11/12 01:02:19;;;;;;;24.93;16.33;;;7.10;99.90;;;;;;5070938;28;20183;-80
2023/11/12 01:04:46;;;;;;;25.77;16.60;;;7.10;99.90;;;;;;5057824;28;20203;-80
2023/11/12 01:07:13;;;;;;;26.97;18.40;;;7.10;99.90;;;;;;5056228;28;20277;-79
2023/11/12 01:09:40;;;;;;;24.83;16.20;;;7.00;99.90;;;;;;5056743;28;20604;-83
2023/11/12 01:12:09;;;;;;;24.63;16.30;;;7.00;99.90;;;;;;5069617;28;20274;-83
2023/11/12 01:14:36;;;;;;;25.70;16.93;;;7.00;99.90;;;;;;5075861;28;20232;-81
2023/11/12 01:17:04;;;;;;;27.37;16.83;;;7.00;99.90;;;;;;5059846;28;20225;-83
2023/11/12 01:19:31;;;;;;;26.70;17.20;;;7.00;99.90;;;;;;5057920;28;20658;-85
2023/11/12 01:21:57;;;;;;;25.53;16.10;;;6.90;99.90;;;;;;5060410;28;20206;-82
2023/11/12 01:24:26;;;;;;;26.47;16.80;;;6.90;99.90;;;;;;5067417;28;20207;-82
2023/11/12 01:26:52;;;;;;;25.23;16.70;;;6.90;99.90;;;;;;5061059;28;20314;-85
2023/11/12 01:29:21;;;;;;;25.87;16.40;;;6.90;99.90;;;;;;5066980;28;20183;-84
2023/11/12 01:31:48;;;;;;;25.10;15.70;;;7.00;99.90;;;;;;5080554;28;20305;-84
2023/11/12 01:34:15;;;;;;;27.87;17.43;;;7.00;99.90;;;;;;5079748;28;20684;-81
2023/11/12 01:36:42;;;;;;;25.27;16.67;;;7.00;99.90;;;;;;5080167;28;20705;-84
2023/11/12 01:39:09;;;;;;;27.50;16.97;;;7.00;59.60;;;;;;5079118;28;20202;-84
2023/11/12 01:41:36;;;;;;;27.17;17.53;;;7.00;23.90;;;;;;5080252;28;20289;-84
2023/11/12 01:44:03;;;;;;;28.57;17.97;;;7.00;1.90;;;;;;5080062;28;20266;-82
2023/11/12 01:46:32;;;;;;;27.23;17.67;;;7.00;1.00;;;;;;5079944;28;20222;-83
2023/11/12 01:48:59;;;;;;;28.37;17.17;;;7.10;1.00;;;;;;5079034;28;20250;-82
2023/11/12 01:51:29;;;;;;;28.63;17.10;;;6.90;55.00;;;;;;5078427;28;20317;-84
2023/11/12 01:53:57;;;;;;;25.93;18.17;;;6.90;1.00;;;;;;5079625;28;20210;-85
2023/11/12 01:56:25;;;;;;;27.30;16.70;;;6.90;1.00;;;;;;5068171;28;20691;-85
2023/11/12 01:58:55;;;;;;;27.10;19.37;;;6.90;1.00;;;;;;5078385;28;20643;-83
2023/11/12 02:01:22;;;;;;;24.97;16.23;;;6.90;1.00;;;;;;5067744;28;20207;-83
2023/11/12 02:03:53;;;;;;;24.80;17.03;;;6.90;1.00;;;;;;5059202;28;20597;-82
2023/11/12 02:06:19;;;;;;;25.10;16.27;;;6.90;1.00;;;;;;5059039;28;20241;-83
2023/11/12 02:08:46;;;;;;;27.27;16.17;;;6.90;1.00;;;;;;5074375;28;20198;-84
2023/11/12 02:11:14;;;;;;;23.90;15.97;;;6.90;1.00;;;;;;5078928;28;20329;-85
2023/11/12 02:13:43;;;;;;;23.83;15.40;;;6.90;1.00;;;;;;5079246;28;20228;-83
2023/11/12 02:16:10;;;;;;;23.93;15.30;;;6.80;99.90;;;;;;5079434;28;20265;-82
2023/11/12 02:18:37;;;;;;;23.67;14.43;;;6.90;99.90;;;;;;5079660;28;20567;-83
2023/11/12 02:21:05;;;;;;;21.27;13.07;;;6.90;69.20;;;;;;5067225;28;20626;-81
2023/11/12 02:23:38;;;;;;;22.23;13.83;;;6.70;99.90;;;;;;5079383;28;20198;-82
2023/11/12 02:26:05;;;;;;;21.87;13.27;;;6.90;1.00;;;;;;5066305;28;20305;-84
2023/11/12 02:28:32;;;;;;;22.83;14.67;;;6.90;1.00;;;;;;5079505;28;20643;-81
2023/11/12 02:30:59;;;;;;;22.00;14.13;;;6.90;1.00;;;;;;5078321;28;20265;-83
2023/11/12 02:33:27;;;;;;;22.17;14.83;;;6.90;1.00;;;;;;5080056;28;20661;-85
2023/11/12 02:35:55;;;;;;;24.17;14.37;;;6.90;1.00;;;;;;5079046;28;20249;-85
2023/11/12 02:38:22;;;;;;;21.23;13.83;;;6.90;1.00;;;;;;5066756;28;20272;-79
2023/11/12 02:40:51;;;;;;;25.20;14.47;;;6.90;1.00;;;;;;5072766;28;20241;-84
2023/11/12 02:43:20;;;;;;;24.03;15.33;;;6.80;99.90;;;;;;5073656;28;20275;-83
2023/11/12 02:45:46;;;;;;;21.97;13.63;;;6.90;10.90;;;;;;5074803;28;20312;-83
2023/11/12 02:48:13;;;;;;;22.63;13.87;;;6.90;99.90;;;;;;5079465;28;20225;-80
2023/11/12 02:50:40;;;;;;;22.37;14.43;;;6.90;99.90;;;;;;5064144;28;20309;-83
2023/11/12 02:53:07;;;;;;;20.83;13.93;;;6.90;99.90;;;;;;5077223;28;20739;-83
2023/11/12 02:55:34;;;;;;;20.87;13.27;;;6.90;1.00;;;;;;5068192;28;20240;-80
2023/11/12 02:58:03;;;;;;;21.63;14.37;;;6.90;1.00;;;;;;5060214;28;20241;-80
2023/11/12 03:00:30;;;;;;;21.60;13.13;;;6.90;99.90;;;;;;5056414;28;20199;-82
2023/11/12 03:02:58;;;;;;;20.70;13.10;;;6.90;1.00;;;;;;5056508;28;20206;-82
2023/11/12 03:05:25;;;;;;;19.87;13.27;;;6.90;1.00;;;;;;5068195;28;20206;-80
2023/11/12 03:07:52;;;;;;;21.23;13.23;;;7.00;1.00;;;;;;5076615;28;20297;-79
2023/11/12 03:10:19;;;;;;;19.77;12.23;;;6.90;1.00;;;;;;5076108;28;20220;-81
2023/11/12 03:12:47;;;;;;;20.33;13.17;;;6.90;1.00;;;;;;5078591;28;20206;-81
2023/11/12 03:15:15;;;;;;;20.67;12.67;;;6.90;1.00;;;;;;5068608;28;20214;-80
2023/11/12 03:17:43;;;;;;;21.57;12.90;;;6.90;1.00;;;;;;5058366;28;20261;-82
2023/11/12 03:20:13;;;;;;;23.80;12.87;;;6.90;99.90;;;;;;5076271;28;20213;-81
2023/11/12 03:22:40;;;;;;;19.20;12.20;;;6.80;1.00;;;;;;5078098;28;20206;-79
2023/11/12 03:25:09;;;;;;;19.70;13.30;;;6.80;99.90;;;;;;5059010;28;20246;-81
2023/11/12 03:27:36;;;;;;;20.83;12.83;;;6.80;99.90;;;;;;5057205;28;20289;-83
2023/11/12 03:30:04;;;;;;;22.33;12.83;;;6.70;99.90;;;;;;5066544;28;20666;-83
2023/11/12 03:32:32;;;;;;;19.03;12.40;;;6.60;99.90;;;;;;5065066;28;20250;-81
2023/11/12 03:35:00;;;;;;;24.10;13.23;;;6.50;99.90;;;;;;5066271;28;20667;-81
2023/11/12 03:37:27;;;;;;;17.13;11.20;;;6.40;1.00;;;;;;5059204;28;20769;-81
2023/11/12 03:39:54;;;;;;;19.67;12.73;;;6.30;1.00;;;;;;5076025;28;20293;-80
2023/11/12 03:42:21;;;;;;;18.33;12.40;;;6.20;1.00;;;;;;5077762;28;20212;-80
2023/11/12 03:44:49;;;;;;;17.53;11.90;;;6.20;99.90;;;;;;5078507;28;20654;-81
2023/11/12 03:47:16;;;;;;;20.13;12.00;;;6.10;1.00;;;;;;5077909;28;20689;-80
2023/11/12 03:49:45;;;;;;;19.00;11.77;;;6.00;1.00;;;;;;5077697;28;20278;-82
2023/11/12 03:52:12;;;;;;;20.67;12.50;;;5.90;1.00;;;;;;5077984;28;20218;-82
2023/11/12 03:54:39;;;;;;;18.43;12.20;;;5.90;1.00;;;;;;5073118;28;20643;-82
2023/11/12 03:57:06;;;;;;;19.33;12.30;;;5.90;1.00;;;;;;5060444;28;20658;-81
2023/11/12 03:59:33;;;;;;;21.00;13.10;;;5.80;1.00;;;;;;5078188;28;20206;-82
2023/11/12 04:01:59;;;;;;;19.80;13.20;;;5.80;1.00;;;;;;5076038;28;20294;-80
2023/11/12 04:04:26;;;;;;;23.27;12.87;;;5.90;1.00;;;;;;5078283;28;20612;-80
2023/11/12 04:06:54;;;;;;;20.20;13.03;;;5.90;1.00;;;;;;5077854;28;20222;-79
2023/11/12 04:09:21;;;;;;;18.27;11.80;;;5.80;1.00;;;;;;5059340;28;20214;-82
2023/11/12 04:11:48;;;;;;;19.73;13.13;;;5.80;1.00;;;;;;5069809;28;20314;-81
2023/11/12 04:14:15;;;;;;;17.80;11.47;;;5.70;1.00;;;;;;5076626;28;20247;-83
2023/11/12 04:16:42;;;;;;;19.83;11.63;;;5.70;1.00;;;;;;5077996;28;20221;-83
2023/11/12 04:19:09;;;;;;;18.03;11.63;;;5.70;1.00;;;;;;5079648;28;20322;-80
2023/11/12 04:21:36;;;;;;;17.03;11.30;;;5.80;1.00;;;;;;5070799;28;20570;-83
2023/11/12 04:24:05;;;;;;;16.53;10.43;;;5.80;1.00;;;;;;5077629;28;20289;-81
2023/11/12 04:26:32;;;;;;;17.13;10.90;;;5.80;1.00;;;;;;5077092;28;20222;-83
2023/11/12 04:29:03;;;;;;;17.27;10.73;;;5.80;1.00;;;;;;5077549;28;20289;-80
2023/11/12 04:31:30;;;;;;;18.23;10.87;;;5.70;1.00;;;;;;5067734;28;20272;-83
2023/11/12 04:33:57;;;;;;;14.90;10.37;;;5.80;99.90;;;;;;5062728;28;20207;-80
2023/11/12 04:36:26;;;;;;;17.37;10.77;;;5.80;99.90;;;;;;5068906;28;20222;-81
2023/11/12 04:38:53;;;;;;;16.40;11.10;;;5.80;99.90;;;;;;5077350;28;20206;-82
2023/11/12 04:41:21;;;;;;;16.30;10.70;;;5.70;99.90;;;;;;5057344;28;20638;-80
2023/11/12 04:43:48;;;;;;;15.80;10.77;;;5.70;99.90;;;;;;5056813;28;20215;-81
2023/11/12 04:46:17;;;;;;;18.23;11.20;;;5.80;99.90;;;;;;5059202;28;20607;-80
2023/11/12 04:48:44;;;;;;;17.50;11.20;;;5.80;99.90;;;;;;5077771;28;20205;-81
2023/11/12 04:51:11;;;;;;;21.93;12.20;;;5.80;99.90;;;;;;5059306;28;20694;-80
2023/11/12 04:53:39;;;;;;;22.03;11.53;;;5.80;99.90;;;;;;5056427;28;20203;-80
2023/11/12 04:56:08;;;;;;;18.77;11.50;;;5.90;99.90;;;;;;5069360;28;20236;-82
2023/11/12 04:58:36;;;;;;;20.13;12.77;;;5.90;99.90;;;;;;5081384;28;20202;-83
2023/11/12 05:01:03;;;;;;;17.43;11.37;;;5.90;99.90;;;;;;5080898;28;20206;-83
2023/11/12 05:03:31;;;;;;;17.83;11.03;;;5.90;99.90;;;;;;5081367;28;20205;-82
2023/11/12 05:05:59;;;;;;;22.97;11.87;;;6.00;99.90;;;;;;5064837;28;20219;-82
2023/11/12 05:08:26;;;;;;;20.00;10.50;;;6.10;99.90;;;;;;5062086;28;20205;-83
2023/11/12 05:10:53;;;;;;;18.73;10.90;;;6.10;99.90;;;;;;5076922;28;20209;-81
2023/11/12 05:13:20;;;;;;;22.27;11.27;;;6.20;99.90;;;;;;5081025;28;20198;-82
2023/11/12 05:15:48;;;;;;;17.07;10.63;;;6.20;99.90;;;;;;5079839;28;20317;-81
2023/11/12 05:18:15;;;;;;;18.23;10.07;;;6.20;99.90;;;;;;5081316;28;20635;-82
2023/11/12 05:20:42;;;;;;;15.83;9.67;;;6.20;99.90;;;;;;5081276;28;20233;-84
2023/11/12 05:23:09;;;;;;;14.83;9.37;;;6.20;99.90;;;;;;5080102;28;20250;-80
2023/11/12 05:25:35;;;;;;;15.50;9.53;;;6.20;99.90;;;;;;5072935;28;20216;-81
2023/11/12 05:28:04;;;;;;;16.07;9.67;;;6.30;99.90;;;;;;5081311;28;20252;-82
2023/11/12 05:30:30;;;;;;;16.77;9.43;;;6.30;99.90;;;;;;5080818;28;20210;-82
2023/11/12 05:32:59;;;;;;;16.03;9.37;;;6.30;99.90;;;;;;5076007;28;20222;-81
2023/11/12 05:35:26;;;;;;;15.73;9.20;;;6.30;99.90;;;;;;5080704;28;20256;-79
2023/11/12 05:37:54;;;;;;;15.67;9.20;;;6.30;99.90;;;;;;5079829;28;20209;-81
2023/11/12 05:40:21;;;;;;;15.13;9.37;;;6.30;99.90;;;;;;5060672;28;20558;-83
2023/11/12 05:42:47;;;;;;;15.27;9.77;;;6.40;99.90;;;;;;5060987;28;20201;-80
2023/11/12 05:45:14;;;;;;;15.07;8.90;;;6.40;99.90;;;;;;5059998;28;20203;-82
2023/11/12 05:47:41;;;;;;;16.70;9.47;;;6.40;99.90;;;;;;5060020;28;20217;-83
2023/11/12 05:50:12;;;;;;;16.00;8.40;;;6.40;74.60;;;;;;5070370;28;20281;-80
2023/11/12 05:52:39;;;;;;;13.03;8.60;;;6.40;86.10;;;;;;5079844;28;20225;-82
2023/11/12 05:55:06;;;;;;;14.30;8.57;;;6.40;30.10;;;;;;5079012;28;20658;-82
2023/11/12 05:57:33;;;;;;;12.53;8.07;;;6.40;42.10;;;;;;5075796;28;20293;-83
2023/11/12 06:00:00;;;;;;;14.40;8.67;;;6.40;1.00;;;;;;5069220;28;20293;-82
2023/11/12 06:02:27;;;;;;;15.23;7.90;;;6.40;1.00;;;;;;5080811;28;20666;-80
2023/11/12 06:04:53;;;;;;;13.80;7.83;;;6.40;1.00;;;;;;5080578;28;20663;-82
2023/11/12 06:07:22;;;;;;;12.63;8.10;;;6.50;1.00;;;;;;5063919;28;20218;-83
2023/11/12 06:09:48;;;;;;;11.63;6.80;;;6.50;99.90;;;;;;5060188;28;20392;-83
2023/11/12 06:12:15;;;;;;;11.40;7.37;;;6.50;99.90;;;;;;5078199;28;20226;-84
2023/11/12 06:14:42;;;;;;;12.23;7.20;;;6.60;99.90;;;;;;5079957;28;20198;-83
2023/11/12 06:17:09;;;;;;;12.40;7.00;;;6.60;95.80;;;;;;5079978;28;20226;-78
2023/11/12 06:19:36;;;;;;;8.10;6.10;;;6.50;99.90;;;;;;5084831;28;20202;-82
2023/11/12 06:22:03;;;;;;;6.87;5.80;;;6.50;5.60;;;;;;5078844;28;20248;-82
2023/11/12 06:24:31;;;;;;;10.50;6.43;;;6.50;1.00;;;;;;5059557;28;20203;-80
2023/11/12 06:26:58;;;;;;;12.43;7.27;;;6.50;1.00;;;;;;5074878;28;20214;-83
2023/11/12 06:29:25;;;;;;;11.80;7.20;;;6.50;1.00;;;;;;5079385;28;20238;-83
2023/11/12 06:31:52;;;;;;;10.50;7.37;;;6.50;1.00;;;;;;5079810;28;20253;-83
2023/11/12 06:34:19;;;;;;;13.83;6.57;;;6.60;1.00;;;;;;5080360;28;20245;-85
2023/11/12 06:36:46;;;;;;;12.07;6.27;;;6.50;1.00;;;;;;5078238;28;20218;-83
2023/11/12 06:39:13;;;;;;;8.90;6.30;;;6.50;1.00;;;;;;5078035;28;20202;-87
2023/11/12 06:41:41;;;;;;;10.10;6.33;;;6.50;1.00;;;;;;5078150;28;20205;-83
2023/11/12 06:44:09;;;;;;;10.60;6.30;;;6.50;1.00;;;;;;5077355;28;20237;-84
2023/11/12 06:46:36;;;;;;;8.30;6.13;;;6.50;1.00;;;;;;5079841;28;20226;-85
2023/11/12 06:49:04;;;;;;;11.80;5.87;;;6.50;1.00;;;;;;5076488;28;20288;-84
2023/11/12 06:51:31;;;;;;;9.43;5.70;;;6.50;99.90;;;;;;5074478;28;20207;-84
2023/11/12 06:53:58;;;;;;;10.10;5.83;;;6.50;99.90;;;;;;5058144;28;20242;-83
2023/11/12 06:56:25;;;;;;;8.93;5.53;;;6.50;99.90;;;;;;5060569;28;20261;-82
2023/11/12 06:58:53;;;;;;;10.43;6.17;;;6.60;99.90;;;;;;5059986;28;20187;-84
2023/11/12 07:01:20;;;;;;;9.57;5.83;;;6.50;1.00;;;;;;5078596;28;20281;-81
2023/11/12 07:03:47;;;;;;;8.50;5.60;;;6.50;1.00;;;;;;5075295;28;20259;-82
2023/11/12 07:06:14;;;;;;;9.17;5.73;;;6.50;1.00;;;;;;5076483;28;20217;-83
2023/11/12 07:08:41;;;;;;;8.83;5.47;;;6.40;99.90;;;;;;5078994;28;20580;-85
2023/11/12 07:11:09;;;;;;;8.40;5.57;;;6.40;99.90;;;;;;5074590;28;20237;-83
2023/11/12 07:13:36;;;;;;;9.30;5.97;;;6.50;99.90;;;;;;5056584;28;20222;-82
2023/11/12 07:16:05;;;;;;;10.37;5.97;;;6.40;99.90;;;;;;5056404;28;20226;-81
2023/11/12 07:18:32;;;;;;;10.07;6.10;;;6.50;51.00;;;;;;5075920;28;20686;-83
2023/11/12 07:20:59;;;;;;;11.77;6.00;;;6.50;1.00;;;;;;5077416;28;20202;-82
2023/11/12 07:23:26;;;;;;;11.00;6.23;;;6.50;9.00;;;;;;5059362;28;20267;-82
2023/11/12 07:25:53;;;;;;;9.60;5.80;;;6.50;1.00;;;;;;5057174;28;20319;-83
2023/11/12 07:28:21;;;;;;;12.20;6.50;;;6.50;99.90;;;;;;5057052;28;20209;-83
2023/11/12 07:30:47;;;;;;;7.37;5.40;;;6.50;99.90;;;;;;5074104;28;20205;-83
2023/11/12 07:33:16;;;;;;;11.30;6.37;;;6.50;99.90;;;;;;5076867;28;20366;-83
2023/11/12 07:35:43;;;;;;;9.43;5.90;;;6.50;1.00;;;;;;5072206;28;20230;-84
2023/11/12 07:38:09;;;;;;;9.20;6.20;;;6.60;99.90;;;;;;5074518;28;20237;-82
2023/11/12 07:40:36;;;;;;;11.60;6.50;;;6.70;2.80;;;;;;5076246;28;20604;-82
2023/11/12 07:43:03;;;;;;;9.10;6.13;;;6.70;1.00;;;;;;5077019;28;20259;-83
2023/11/12 07:45:30;;;;;;;11.40;6.70;;;6.70;1.00;;;;;;5070360;28;20202;-84
2023/11/12 07:47:57;;;;;;;10.07;6.27;;;6.70;99.90;;;;;;5057169;28;20199;-84
2023/11/12 07:50:25;;;;;;;9.93;6.80;;;6.70;99.90;;;;;;5072763;28;20766;-85
2023/11/12 07:52:52;;;;;;;10.33;6.37;;;6.70;99.90;;;;;;5056738;28;20565;-84
2023/11/12 07:55:19;;;;;;;12.27;6.70;;;6.80;99.90;;;;;;5065771;28;20202;-83
2023/11/12 07:57:46;;;;;;;10.60;6.90;;;6.80;99.90;;;;;;5076085;28;20250;-85
2023/11/12 08:00:14;;;;;;;13.33;7.93;;;6.80;99.90;;;;;;5076823;28;20202;-82
2023/11/12 08:02:41;;;;;;;10.67;6.43;;;6.80;99.90;;;;;;5061496;28;20206;-84
2023/11/12 08:05:10;;;;;;;9.20;6.30;;;6.80;1.00;;;;;;5073326;28;20678;-86
2023/11/12 08:07:38;;;;;;;10.13;6.10;;;6.80;1.00;;;;;;5077534;28;20268;-85
2023/11/12 08:10:08;;;;;;;7.07;5.77;;;6.90;1.00;;;;;;5063707;28;20218;-86
2023/11/12 08:12:35;;;;;;;9.70;6.37;;;6.90;1.00;;;;;;5054460;28;20273;-85
2023/11/12 08:15:01;;;;;;;8.73;6.47;;;6.80;1.00;;;;;;5055718;28;20218;-83
2023/11/12 08:17:30;;;;;;;8.17;6.07;;;6.80;1.00;;;;;;5055255;28;20306;-84
2023/11/12 08:19:56;;;;;;;10.30;6.47;;;6.80;1.00;;;;;;5057247;28;20195;-86
2023/11/12 08:22:24;;;;;;;9.33;6.80;;;6.90;1.00;;;;;;5056945;28;20620;-84
2023/11/12 08:24:53;;;;;;;10.67;6.70;;;6.90;1.00;;;;;;5056437;28;20250;-85
2023/11/12 08:27:20;;;;;;;9.87;6.03;;;6.90;1.00;;;;;;5056427;28;20223;-85
2023/11/12 08:29:47;;;;;;;9.70;5.63;;;6.90;1.00;;;;;;5056746;28;20215;-85
2023/11/12 08:32:14;;;;;;;7.20;5.77;;;7.00;1.00;;;;;;5066539;28;20218;-86
2023/11/12 08:34:41;;;;;;;9.23;6.27;;;6.90;99.90;;;;;;5078233;28;20309;-86
2023/11/12 08:37:08;;;;;;;11.70;6.33;;;7.00;1.00;;;;;;5077878;28;20889;-86
2023/11/12 08:39:36;;;;;;;9.67;5.97;;;7.00;99.90;;;;;;5078328;28;20206;-85
2023/11/12 08:42:05;;;;;;;9.97;5.87;;;7.00;99.90;;;;;;5078982;28;20642;-82
2023/11/12 08:44:32;;;;;;;9.93;6.70;;;7.10;99.90;;;;;;5080287;28;20614;-84
2023/11/12 08:46:59;;;;;;;10.77;6.33;;;7.10;99.90;;;;;;5080739;28;20226;-83
2023/11/12 08:49:30;;;;;;;8.57;5.97;;;7.30;89.00;;;;;;5081246;28;20634;-83
2023/11/12 08:51:57;;;;;;;11.73;6.37;;;7.20;92.10;;;;;;5080040;28;20740;-85
2023/11/12 08:54:25;;;;;;;7.73;6.00;;;7.20;1.00;;;;;;5078951;28;20297;-85
2023/11/12 08:56:53;;;;;;;8.50;6.10;;;7.20;1.00;;;;;;5079702;28;20705;-83
2023/11/12 08:59:22;;;;;;;9.07;6.13;;;7.40;1.00;;;;;;5079441;28;20209;-84
2023/11/12 09:01:49;;;;;;;10.33;6.60;;;7.30;1.00;;;;;;5079472;28;20213;-85
2023/11/12 09:04:16;;;;;;;9.70;5.70;;;7.40;1.00;;;;;;5078863;28;20209;-85
2023/11/12 09:06:43;;;;;;;12.90;6.40;;;7.50;1.00;;;;;;5078646;28;20218;-85
2023/11/12 09:09:11;;;;;;;10.93;6.20;;;7.50;1.00;;;;;;5079760;28;20206;-81
2023/11/12 09:11:38;;;;;;;8.90;5.83;;;7.50;1.00;;;;;;5076984;28;20216;-85
2023/11/12 09:14:06;;;;;;;10.53;6.10;;;7.50;1.00;;;;;;5079857;28;20305;-84
2023/11/12 09:16:35;;;;;;;10.77;6.00;;;7.60;1.00;;;;;;5078647;28;20245;-81
2023/11/12 09:19:02;;;;;;;9.27;6.17;;;7.60;1.00;;;;;;5077372;28;20226;-85
2023/11/12 09:21:32;;;;;;;10.17;5.73;;;7.70;1.00;;;;;;5081201;28;20711;-86
2023/11/12 09:23:59;;;;;;;10.23;6.33;;;7.70;1.00;;;;;;5099204;28;20212;-85
2023/11/12 09:26:26;;;;;;;10.37;5.97;;;7.90;1.00;;;;;;5099630;28;20665;-84
2023/11/12 09:28:53;;;;;;;10.13;6.40;;;8.10;1.00;;;;;;5100267;28;20585;-85
2023/11/12 09:31:20;;;;;;;9.10;5.97;;;8.10;99.90;;;;;;5099158;28;20206;-85
2023/11/12 09:33:48;;;;;;;10.77;6.23;;;8.20;99.90;;;;;;5098650;28;20229;-84
2023/11/12 09:36:17;;;;;;;8.50;5.93;;;8.20;99.90;;;;;;5099309;28;20272;-82
2023/11/12 09:38:44;;;;;;;9.47;6.50;;;8.30;99.90;;;;;;5098977;28;20202;-84
2023/11/12 09:41:12;;;;;;;9.77;6.30;;;8.30;99.90;;;;;;5098534;28;20216;-87
2023/11/12 09:43:39;;;;;;;8.00;6.07;;;8.10;8.70;;;;;;5096832;28;20194;-86
2023/11/12 09:46:08;;;;;;;9.47;6.03;;;8.10;62.70;;;;;;5069992;28;20260;-83
2023/11/12 09:48:36;;;;;;;9.30;5.97;;;8.30;19.50;;;;;;5072324;28;20202;-85
2023/11/12 09:51:05;;;;;;;10.03;5.90;;;8.10;99.90;;;;;;5078622;28;20255;-85
2023/11/12 09:53:33;;;;;;;9.47;6.10;;;8.20;1.00;;;;;;5079979;28;20230;-86
2023/11/12 09:56:04;;;;;;;12.90;7.40;;;8.30;72.60;;;;;;5079619;28;20230;-86
2023/11/12 09:58:31;;;;;;;15.33;8.10;;;8.20;1.00;;;;;;5078826;28;20195;-85
2023/11/12 10:01:00;;;;;;;9.40;5.80;;;8.30;99.90;;;;;;5078201;28;20206;-84
2023/11/12 10:03:27;;;;;;;9.10;5.90;;;8.20;1.00;;;;;;5076789;28;20293;-80
2023/11/12 10:05:54;;;;;;;10.47;6.13;;;8.30;1.00;;;;;;5075918;28;20753;-87
2023/11/12 10:08:23;;;;;;;14.20;7.37;;;8.20;1.00;;;;;;5077014;28;20206;-86
2023/11/12 10:10:50;;;;;;;11.47;7.20;;;8.30;1.00;;;;;;5077845;28;20586;-86
2023/11/12 10:13:18;;;;;;;13.67;8.03;;;8.40;1.00;;;;;;5076899;28;20603;-86
2023/11/12 10:15:46;;;;;;;9.90;6.43;;;8.50;1.00;;;;;;5077309;28;20716;-85
2023/11/12 10:18:13;;;;;;;12.13;5.93;;;8.40;1.00;;;;;;5075247;28;20194;-84
2023/11/12 10:20:41;;;;;;;12.37;6.70;;;8.40;1.00;;;;;;5078148;28;20259;-81
2023/11/12 10:23:20;;;;;;;8.37;5.63;;;8.40;1.00;;;;;;5078669;28;20681;-84
2023/11/12 10:25:48;;;;;;;8.97;6.20;;;8.40;1.00;;;;;;5078986;28;20222;-84
2023/11/12 10:28:16;;;;;;;9.77;6.10;;;8.60;1.00;;;;;;5078144;28;20210;-84
2023/11/12 10:30:46;;;;;;;10.00;5.90;;;8.50;1.00;;;;;;5079472;28;20202;-84
2023/11/12 10:33:23;;;;;;;9.17;5.63;;;8.60;1.00;;;;;;5079530;28;20215;-83
2023/11/12 10:35:51;;;;;;;10.07;5.87;;;8.60;1.00;;;;;;5078776;28;20226;-84
2023/11/12 10:38:18;;;;;;;9.93;6.23;;;8.60;1.00;;;;;;5078108;28;20198;-83
2023/11/12 10:41:03;;;;;;;9.50;5.80;;;8.80;1.00;;;;;;5078079;28;20229;-82
2023/11/12 10:43:30;;;;;;;7.67;5.03;;;8.70;1.00;;;;;;5077703;28;20555;-82
2023/11/12 10:45:59;;;;;;;9.17;6.03;;;8.70;1.00;;;;;;5076129;28;20245;-82
2023/11/12 10:48:35;;;;;;;9.97;5.80;;;8.70;1.00;;;;;;5076423;28;20206;-84
2023/11/12 10:51:04;;;;;;;8.43;5.70;;;8.80;1.00;;;;;;5075945;28;20260;-82
2023/11/12 10:53:33;;;;;;;8.30;5.80;;;8.70;1.00;;;;;;5076575;28;20226;-84
2023/11/12 10:56:02;;;;;;;8.67;5.70;;;8.80;1.00;;;;;;5075633;28;20296;-82
2023/11/12 10:58:30;;;;;;;9.30;6.40;;;8.80;1.00;;;;;;5076441;28;20198;-83
2023/11/12 11:00:58;;;;;;;8.67;6.03;;;8.80;1.00;;;;;;5077864;28;20214;-81
2023/11/12 11:03:28;;;;;;;9.63;5.90;;;8.80;1.00;;;;;;5077248;28;20198;-81
2023/11/12 11:05:56;;;;;;;9.53;5.57;;;8.90;1.00;;;;;;5076539;28;20215;-79
2023/11/12 11:08:24;;;;;;;7.17;5.17;;;8.90;1.00;;;;;;5076985;28;20622;-84
2023/11/12 11:10:51;;;;;;;8.03;5.40;;;8.90;1.00;;;;;;5078839;28;20275;-83
2023/11/12 11:13:20;;;;;;;7.23;5.23;;;8.90;1.00;;;;;;5077771;28;20310;-82
2023/11/12 11:15:52;;;;;;;7.60;4.83;;;9.00;1.00;;;;;;5076629;28;20222;-81
2023/11/12 11:18:51;;;;;;;8.53;5.57;;;9.10;1.00;;;;;;5077115;28;20220;-84
2023/11/12 11:21:22;;;;;;;8.90;5.23;;;9.20;1.00;;;;;;5078895;28;20206;-86
2023/11/12 11:23:52;;;;;;;9.27;6.10;;;9.30;1.00;;;;;;5078357;28;20195;-85
2023/11/12 11:26:30;;;;;;;8.63;6.23;;;9.30;1.00;;;;;;5074508;28;20218;-83
2023/11/12 11:29:17;;;;;;;10.47;6.37;;;9.20;1.00;;;;;;5075692;28;20212;-81
2023/11/12 11:32:14;;;;;;;10.20;7.13;;;9.10;1.00;;;;;;5077953;28;20193;-84
2023/11/12 11:34:42;;;;;;;11.33;6.07;;;9.10;1.00;;;;;;5076109;28;20735;-84
2023/11/12 11:37:09;;;;;;;11.87;6.50;;;9.10;1.00;;;;;;5077428;28;20288;-82
2023/11/12 11:39:37;;;;;;;10.03;6.20;;;9.10;1.00;;;;;;5076042;28;20202;-83
2023/11/12 11:42:17;;;;;;;9.23;6.73;;;9.30;1.00;;;;;;5076805;28;20339;-85
2023/11/12 11:44:49;;;;;;;10.33;6.23;;;9.10;1.00;;;;;;5075431;28;20221;-81
2023/11/12 11:47:17;;;;;;;10.83;6.17;;;9.00;1.00;;;;;;5077900;28;20277;-82
2023/11/12 11:49:45;;;;;;;11.40;5.73;;;9.10;1.00;;;;;;5077447;28;20202;-82
2023/11/12 11:52:17;;;;;;;7.47;4.77;;;9.00;1.00;;;;;;5077048;28;20203;-82
2023/11/12 11:54:45;;;;;;;8.40;4.70;;;8.90;1.00;;;;;;5076800;28;20221;-83
2023/11/12 11:57:14;;;;;;;9.00;4.67;;;9.10;1.00;;;;;;5076253;28;20304;-83
2023/11/12 11:59:43;;;;;;;10.33;5.97;;;9.10;1.00;;;;;;5075821;28;20198;-84
2023/11/12 12:02:15;;;;;;;7.90;5.10;;;9.10;1.00;;;;;;5080188;28;20202;-83
2023/11/12 12:04:46;;;;;;;8.37;4.97;;;9.00;1.00;;;;;;5075178;28;20206;-84
2023/11/12 12:07:19;;;;;;;6.13;4.63;;;9.00;1.00;;;;;;5075010;28;20646;-86
2023/11/12 12:09:46;;;;;;;7.33;4.67;;;9.10;1.00;;;;;;5075326;28;20182;-84
2023/11/12 12:12:13;;;;;;;9.17;4.67;;;9.00;1.00;;;;;;5074806;28;20711;-82
2023/11/12 12:14:40;;;;;;;8.03;4.93;;;9.00;1.00;;;;;;5075363;28;20685;-85
2023/11/12 12:17:07;;;;;;;7.50;4.87;;;9.00;99.90;;;;;;5074721;28;20224;-85
2023/11/12 12:19:36;;;;;;;8.43;4.73;;;9.10;1.00;;;;;;5073329;28;20275;-85
2023/11/12 12:22:04;;;;;;;7.57;4.40;;;9.10;1.00;;;;;;5075401;28;20579;-84
2023/11/12 12:24:32;;;;;;;6.67;4.70;;;9.10;1.00;;;;;;5074773;28;20206;-83
2023/11/12 12:26:59;;;;;;;8.83;5.20;;;9.10;99.90;;;;;;5075320;28;20233;-82
2023/11/12 12:29:26;;;;;;;5.93;4.27;;;9.20;99.90;;;;;;5076163;28;20240;-82
2023/11/12 12:31:55;;;;;;;6.47;4.37;;;9.30;99.90;;;;;;5076419;28;20217;-83
2023/11/12 12:34:24;;;;;;;6.47;4.53;;;9.40;99.90;;;;;;5074782;28;20226;-81
2023/11/12 12:36:57;;;;;;;9.97;5.33;;;9.30;99.90;;;;;;5075447;28;20309;-85
2023/11/12 12:39:26;;;;;;;6.43;4.90;;;9.40;99.90;;;;;;5074525;28;20196;-85
2023/11/12 12:41:58;;;;;;;6.67;4.30;;;9.40;99.90;;;;;;5074308;28;20208;-85
2023/11/12 12:44:28;;;;;;;5.80;4.73;;;9.50;99.90;;;;;;5074943;28;20198;-84
2023/11/12 12:46:55;;;;;;;6.17;4.33;;;9.40;99.90;;;;;;5073638;28;20225;-85
2023/11/12 12:49:32;;;;;;;8.00;5.03;;;9.50;99.90;;;;;;5074585;28;20206;-85
2023/11/12 12:52:02;;;;;;;6.80;4.50;;;9.50;99.90;;;;;;5074820;28;20285;-86
2023/11/12 12:54:30;;;;;;;7.20;4.83;;;9.50;99.90;;;;;;5059419;28;20309;-85